createdAt,value
2018-06-28T00:00:46.330Z,2.83
2018-06-28T00:03:14.456Z,3.07
2018-06-28T00:05:43.060Z,4.40
2018-06-28T00:08:11.940Z,4.90
2018-06-28T00:10:40.150Z,4.63
2018-06-28T00:13:08.324Z,3.27
2018-06-28T00:15:36.480Z,4.47
2018-06-28T00:18:04.669Z,4.63
2018-06-28T00:20:32.823Z,4.53
2018-06-28T00:23:01.062Z,5.07
2018-06-28T00:25:29.296Z,4.70
2018-06-28T00:27:57.507Z,4.27
2018-06-28T00:30:25.621Z,4.43
2018-06-28T00:32:53.927Z,4.87
2018-06-28T00:35:22.103Z,5.00
2018-06-28T00:37:50.255Z,3.93
2018-06-28T00:40:18.646Z,3.97
2018-06-28T00:42:46.932Z,5.33
2018-06-28T00:45:15.075Z,3.87
2018-06-28T00:47:43.371Z,5.27
2018-06-28T00:50:11.752Z,4.43
2018-06-28T00:52:40.505Z,4.33
2018-06-28T00:55:08.705Z,4.10
2018-06-28T00:57:37.711Z,5.07
2018-06-28T01:00:06.107Z,6.90
2018-06-28T01:02:34.249Z,6.07
2018-06-28T01:05:04.470Z,4.60
2018-06-28T01:07:32.646Z,5.33
2018-06-28T01:10:01.531Z,5.93
2018-06-28T01:12:29.689Z,4.93
2018-06-28T01:14:57.805Z,4.90
2018-06-28T01:17:26.577Z,3.93
2018-06-28T01:19:54.755Z,4.63
2018-06-28T01:22:22.916Z,5.17
2018-06-28T01:24:51.032Z,4.67
2018-06-28T01:27:19.242Z,4.63
2018-06-28T01:29:47.454Z,4.80
2018-06-28T01:32:15.599Z,4.73
2018-06-28T01:34:44.301Z,5.53
2018-06-28T01:37:13.413Z,5.10
2018-06-28T01:39:42.355Z,5.97
2018-06-28T01:42:15.950Z,5.40
2018-06-28T01:44:44.111Z,6.67
2018-06-28T01:47:12.216Z,5.23
2018-06-28T01:49:40.513Z,5.73
2018-06-28T01:52:08.626Z,5.77
2018-06-28T01:54:36.763Z,5.40
2018-06-28T01:57:05.012Z,7.07
2018-06-28T01:59:33.401Z,7.07
2018-06-28T02:02:01.563Z,5.60
2018-06-28T02:04:29.693Z,5.87
2018-06-28T02:06:57.931Z,5.60
2018-06-28T02:09:26.488Z,5.03
2018-06-28T02:11:54.624Z,5.93
2018-06-28T02:14:22.782Z,5.80
2018-06-28T02:16:50.972Z,5.37
2018-06-28T02:19:19.124Z,5.43
2018-06-28T02:21:47.893Z,4.53
2018-06-28T02:24:16.050Z,5.97
2018-06-28T02:26:44.294Z,5.57
2018-06-28T02:29:12.435Z,5.30
2018-06-28T02:31:40.777Z,6.57
2018-06-28T02:34:09.689Z,5.67
2018-06-28T02:36:37.854Z,5.23
2018-06-28T02:39:06.987Z,5.80
2018-06-28T02:41:35.108Z,5.63
2018-06-28T02:44:03.462Z,5.80
2018-06-28T02:46:31.582Z,5.97
2018-06-28T02:48:59.863Z,5.67
2018-06-28T02:51:27.983Z,5.27
2018-06-28T02:53:56.746Z,5.80
2018-06-28T02:56:25.594Z,6.33
2018-06-28T02:58:53.735Z,7.57
2018-06-28T03:01:21.871Z,7.03
2018-06-28T03:03:50.005Z,6.07
2018-06-28T03:06:18.153Z,5.60
2018-06-28T03:08:46.576Z,5.97
2018-06-28T03:11:14.731Z,6.53
2018-06-28T03:13:42.971Z,6.10
2018-06-28T03:16:11.193Z,6.30
2018-06-28T03:18:39.970Z,6.17
2018-06-28T03:21:08.170Z,5.70
2018-06-28T03:23:36.307Z,6.33
2018-06-28T03:26:04.522Z,7.13
2018-06-28T03:28:32.641Z,6.40
2018-06-28T03:31:00.782Z,6.10
2018-06-28T03:33:28.898Z,6.10
2018-06-28T03:35:57.095Z,5.93
2018-06-28T03:38:25.364Z,5.80
2018-06-28T03:40:53.681Z,6.03
2018-06-28T03:43:21.937Z,6.73
2018-06-28T03:45:50.146Z,6.57
2018-06-28T03:48:18.247Z,6.20
2018-06-28T03:50:46.457Z,7.37
2018-06-28T03:53:14.638Z,6.87
2018-06-28T03:55:43.507Z,7.00
2018-06-28T03:58:11.668Z,6.27
2018-06-28T04:00:40.542Z,6.43
2018-06-28T04:03:08.749Z,7.23
2018-06-28T04:05:36.930Z,7.53
2018-06-28T04:08:05.119Z,5.90
2018-06-28T04:10:33.252Z,7.60
2018-06-28T04:13:01.440Z,5.67
2018-06-28T04:15:29.769Z,5.80
2018-06-28T04:17:57.934Z,5.60
2018-06-28T04:20:26.148Z,5.80
2018-06-28T04:22:54.589Z,5.97
2018-06-28T04:25:22.745Z,6.00
2018-06-28T04:27:51.673Z,6.20
2018-06-28T04:30:19.830Z,5.87
2018-06-28T04:32:48.667Z,6.43
2018-06-28T04:35:16.864Z,6.57
2018-06-28T04:37:45.035Z,7.00
2018-06-28T04:40:13.406Z,7.13
2018-06-28T04:42:42.575Z,8.03
2018-06-28T04:45:10.689Z,5.62
2018-06-28T04:47:38.945Z,5.50
2018-06-28T04:50:07.151Z,7.55
2018-06-28T04:52:35.339Z,6.22
2018-06-28T04:55:03.671Z,5.70
2018-06-28T04:57:31.944Z,5.83
2018-06-28T05:00:00.143Z,6.20
2018-06-28T05:02:28.499Z,5.78
2018-06-28T05:04:56.655Z,5.70
2018-06-28T05:07:25.593Z,6.47
2018-06-28T05:09:54.034Z,7.53
2018-06-28T05:12:22.213Z,6.42
2018-06-28T05:14:50.348Z,6.12
2018-06-28T05:17:18.471Z,6.85
2018-06-28T05:19:46.621Z,6.33
2018-06-28T05:22:14.814Z,7.67
2018-06-28T05:24:42.986Z,6.60
2018-06-28T05:27:11.152Z,6.70
2018-06-28T05:29:39.348Z,6.03
2018-06-28T05:32:07.511Z,6.05
2018-06-28T05:34:35.695Z,7.22
2018-06-28T05:37:03.880Z,6.37
2018-06-28T05:39:32.156Z,5.92
2018-06-28T05:42:00.413Z,6.58
2018-06-28T05:44:29.214Z,6.72
2018-06-28T05:46:57.695Z,6.33
2018-06-28T05:49:25.835Z,7.65
2018-06-28T05:51:54.063Z,6.28
2018-06-28T05:54:22.443Z,5.72
2018-06-28T05:56:50.570Z,5.95
2018-06-28T05:59:18.666Z,6.30
2018-06-28T06:01:47.444Z,5.85
2018-06-28T06:04:15.653Z,6.72
2018-06-28T06:06:44.513Z,5.03
2018-06-28T06:09:13.095Z,7.33
2018-06-28T06:11:41.304Z,5.53
2018-06-28T06:14:09.945Z,7.28
2018-06-28T06:16:38.114Z,9.75
2018-06-28T06:19:06.422Z,7.53
2018-06-28T06:21:34.683Z,6.12
2018-06-28T06:24:03.583Z,5.60
2018-06-28T06:26:31.913Z,6.37
2018-06-28T06:29:00.214Z,5.10
2018-06-28T06:31:28.274Z,5.42
2018-06-28T06:33:56.490Z,4.97
2018-06-28T06:36:24.768Z,4.30
2018-06-28T06:38:52.901Z,4.47
2018-06-28T06:41:21.058Z,4.23
2018-06-28T06:43:49.447Z,7.53
2018-06-28T06:46:17.624Z,4.67
2018-06-28T06:48:45.867Z,5.13
2018-06-28T06:51:14.206Z,5.67
2018-06-28T06:53:42.359Z,4.87
2018-06-28T06:56:10.635Z,4.83
2018-06-28T06:58:38.821Z,4.23
2018-06-28T07:01:07.196Z,6.27
2018-06-28T07:03:35.503Z,4.57
2018-06-28T07:06:03.844Z,6.47
2018-06-28T07:08:32.396Z,4.00
2018-06-28T07:11:00.622Z,4.47
2018-06-28T07:13:28.813Z,4.37
2018-06-28T07:15:57.166Z,4.83
2018-06-28T07:18:25.842Z,4.60
2018-06-28T07:20:55.661Z,4.57
2018-06-28T07:23:23.854Z,3.80
2018-06-28T07:25:52.116Z,3.83
2018-06-28T07:28:24.753Z,3.60
2018-06-28T07:30:52.915Z,4.93
2018-06-28T07:33:21.135Z,4.03
2018-06-28T07:35:50.091Z,5.97
2018-06-28T07:38:18.296Z,3.47
2018-06-28T07:40:47.328Z,3.03
2018-06-28T07:43:16.433Z,2.77
2018-06-28T07:45:44.605Z,3.10
2018-06-28T07:48:12.859Z,4.40
2018-06-28T07:50:42.032Z,4.30
2018-06-28T07:53:10.237Z,5.77
2018-06-28T07:55:38.420Z,2.67
2018-06-28T07:58:06.675Z,3.23
2018-06-28T08:00:35.665Z,2.73
2018-06-28T08:03:03.819Z,3.33
2018-06-28T08:05:32.717Z,3.57
2018-06-28T08:08:01.014Z,4.87
2018-06-28T08:10:29.179Z,3.03
2018-06-28T08:12:57.336Z,3.33
2018-06-28T08:15:25.448Z,2.97
2018-06-28T08:17:53.576Z,4.00
2018-06-28T08:20:21.846Z,2.70
2018-06-28T08:22:50.064Z,4.40
2018-06-28T08:25:18.412Z,2.80
2018-06-28T08:27:49.268Z,3.20
2018-06-28T08:30:17.429Z,2.93
2018-06-28T08:32:45.670Z,3.40
2018-06-28T08:35:13.907Z,3.30
2018-06-28T08:37:42.180Z,3.97
2018-06-28T08:40:10.450Z,2.70
2018-06-28T08:42:38.743Z,2.43
2018-06-28T08:45:06.993Z,2.57
2018-06-28T08:47:35.165Z,2.40
2018-06-28T08:50:03.314Z,2.63
2018-06-28T08:52:32.556Z,3.63
2018-06-28T08:55:00.714Z,2.17
2018-06-28T08:57:30.401Z,2.53
2018-06-28T08:59:59.573Z,2.13
2018-06-28T09:02:28.478Z,2.20
2018-06-28T09:04:56.775Z,2.23
2018-06-28T09:07:24.977Z,3.50
2018-06-28T09:09:54.174Z,2.57
2018-06-28T09:12:22.445Z,2.20
2018-06-28T09:14:51.332Z,2.40
2018-06-28T09:17:19.684Z,2.40
2018-06-28T09:19:48.564Z,2.57
2018-06-28T09:22:16.864Z,1.97
2018-06-28T09:24:45.544Z,3.30
2018-06-28T09:27:13.794Z,2.10
2018-06-28T09:29:42.201Z,1.80
2018-06-28T09:32:10.331Z,3.20
2018-06-28T09:34:39.359Z,1.70
2018-06-28T09:37:07.672Z,1.90
2018-06-28T09:39:35.913Z,1.97
2018-06-28T09:42:04.335Z,2.53
2018-06-28T09:44:32.556Z,2.70
2018-06-28T09:47:00.948Z,2.17
2018-06-28T09:49:29.126Z,1.80
2018-06-28T09:51:57.307Z,2.20
2018-06-28T09:54:25.502Z,2.57
2018-06-28T09:56:53.744Z,2.73
2018-06-28T09:59:21.913Z,2.50
2018-06-28T10:01:50.191Z,3.70
2018-06-28T10:04:18.570Z,2.27
2018-06-28T10:06:46.755Z,2.90
2018-06-28T10:09:15.873Z,2.90
2018-06-28T10:11:44.124Z,2.27
2018-06-28T10:14:13.085Z,4.90
2018-06-28T10:16:41.297Z,2.00
2018-06-28T10:19:09.674Z,1.90
2018-06-28T10:21:38.538Z,1.60
2018-06-28T10:24:06.712Z,2.03
2018-06-28T10:26:35.660Z,2.33
2018-06-28T10:29:03.777Z,3.27
2018-06-28T10:31:32.054Z,2.27
2018-06-28T10:34:00.481Z,2.10
2018-06-28T10:36:28.855Z,2.53
2018-06-28T10:38:57.552Z,3.73
2018-06-28T10:41:27.273Z,1.80
2018-06-28T10:43:55.426Z,2.50
2018-06-28T10:46:23.663Z,1.90
2018-06-28T10:48:51.856Z,2.57
2018-06-28T10:51:20.077Z,2.50
2018-06-28T10:53:48.997Z,2.47
2018-06-28T10:56:17.864Z,1.43
2018-06-28T10:58:47.128Z,1.93
2018-06-28T11:01:15.407Z,2.60
2018-06-28T11:03:43.617Z,1.53
2018-06-28T11:06:12.555Z,3.67
2018-06-28T11:08:40.768Z,2.43
2018-06-28T11:11:08.940Z,2.03
2018-06-28T11:13:37.141Z,1.60
2018-06-28T11:16:05.324Z,1.97
2018-06-28T11:18:33.569Z,2.10
2018-06-28T11:21:01.768Z,2.60
2018-06-28T11:23:30.557Z,2.60
2018-06-28T11:25:58.845Z,1.40
2018-06-28T11:28:27.057Z,1.50
2018-06-28T11:30:55.207Z,1.60
2018-06-28T11:33:23.506Z,1.70
2018-06-28T11:35:51.744Z,3.47
2018-06-28T11:38:19.902Z,1.30
2018-06-28T11:40:48.178Z,2.53
2018-06-28T11:43:16.359Z,1.37
2018-06-28T11:45:44.552Z,1.77
2018-06-28T11:48:12.841Z,2.40
2018-06-28T11:50:41.096Z,1.90
2018-06-28T11:53:09.280Z,2.27
2018-06-28T11:55:37.465Z,1.63
2018-06-28T11:58:06.461Z,3.70
2018-06-28T12:00:34.733Z,3.83
2018-06-28T12:03:03.617Z,2.03
2018-06-28T12:05:32.468Z,1.47
2018-06-28T12:08:01.296Z,1.97
2018-06-28T12:10:29.593Z,2.70
2018-06-28T12:12:58.353Z,1.90
2018-06-28T12:15:27.418Z,2.37
2018-06-28T12:17:55.709Z,2.65
2018-06-28T12:20:23.901Z,1.70
2018-06-28T12:22:52.799Z,2.17
2018-06-28T12:25:21.192Z,2.92
2018-06-28T12:27:49.963Z,2.98
2018-06-28T12:30:18.336Z,1.92
2018-06-28T12:32:46.686Z,1.50
2018-06-28T12:35:15.513Z,2.20
2018-06-28T12:37:43.760Z,1.77
2018-06-28T12:40:12.055Z,3.15
2018-06-28T12:42:40.936Z,1.70
2018-06-28T12:45:09.115Z,1.70
2018-06-28T12:47:47.852Z,1.70
2018-06-28T12:50:16.096Z,1.40
2018-06-28T12:52:48.796Z,1.65
2018-06-28T12:55:18.747Z,1.95
2018-06-28T12:57:47.365Z,1.98
2018-06-28T13:00:16.077Z,1.52
2018-06-28T13:02:44.465Z,1.47
2018-06-28T13:05:13.948Z,2.30
2018-06-28T13:07:42.268Z,1.12
2018-06-28T13:10:11.924Z,2.02
2018-06-28T13:12:40.285Z,1.52
2018-06-28T13:15:10.253Z,1.75
2018-06-28T13:17:38.848Z,3.33
2018-06-28T13:20:07.639Z,4.10
2018-06-28T13:22:35.777Z,1.52
2018-06-28T13:25:05.487Z,1.67
2018-06-28T13:27:33.885Z,1.87
2018-06-28T13:30:02.163Z,2.45
2018-06-28T13:32:31.047Z,2.37
2018-06-28T13:34:59.213Z,1.50
2018-06-28T13:37:28.198Z,2.62
2018-06-28T13:39:56.905Z,2.83
2018-06-28T13:42:25.251Z,2.42
2018-06-28T13:44:53.456Z,1.55
2018-06-28T13:47:21.750Z,2.55
2018-06-28T13:49:49.899Z,2.37
2018-06-28T13:52:18.099Z,1.92
2018-06-28T13:54:46.240Z,2.98
2018-06-28T13:57:14.421Z,1.42
2018-06-28T13:59:42.859Z,1.40
2018-06-28T14:02:11.052Z,2.12
2018-06-28T14:04:39.349Z,3.22
2018-06-28T14:07:07.605Z,2.45
2018-06-28T14:09:35.776Z,1.42
2018-06-28T14:12:04.057Z,1.40
2018-06-28T14:14:32.223Z,1.42
2018-06-28T14:17:00.400Z,2.30
2018-06-28T14:19:28.657Z,3.30
2018-06-28T14:21:56.773Z,1.70
2018-06-28T14:24:24.948Z,1.72
2018-06-28T14:26:53.258Z,1.60
2018-06-28T14:29:21.407Z,1.57
2018-06-28T14:31:49.559Z,2.42
2018-06-28T14:34:18.289Z,2.17
2018-06-28T14:36:46.588Z,1.70
2018-06-28T14:39:15.162Z,1.82
2018-06-28T14:41:43.408Z,2.05
2018-06-28T14:44:11.662Z,1.70
2018-06-28T14:46:39.834Z,1.70
2018-06-28T14:49:07.987Z,1.62
2018-06-28T14:51:36.649Z,2.55
2018-06-28T14:54:05.121Z,1.70
2018-06-28T14:56:33.322Z,3.40
2018-06-28T14:59:01.559Z,3.30
2018-06-28T15:01:29.782Z,2.00
2018-06-28T15:03:58.005Z,3.27
2018-06-28T15:06:26.206Z,2.70
2018-06-28T15:08:54.479Z,2.95
2018-06-28T15:11:22.592Z,2.25
2018-06-28T15:13:50.973Z,1.67
2018-06-28T15:16:20.171Z,1.98
2018-06-28T15:18:48.466Z,1.42
2018-06-28T15:21:17.597Z,1.52
2018-06-28T15:23:46.237Z,1.50
2018-06-28T15:26:15.177Z,1.82
2018-06-28T15:28:43.362Z,1.60
2018-06-28T15:31:11.681Z,1.65
2018-06-28T15:33:39.841Z,5.95
2018-06-28T15:36:08.026Z,1.25
2018-06-28T15:38:36.937Z,1.52
2018-06-28T15:41:05.070Z,1.75
2018-06-28T15:43:33.348Z,1.37
2018-06-28T15:46:01.480Z,2.77
2018-06-28T15:48:29.856Z,2.62
2018-06-28T15:50:57.989Z,2.52
2018-06-28T15:53:26.214Z,2.27
2018-06-28T15:55:54.436Z,1.35
2018-06-28T15:58:22.713Z,1.57
2018-06-28T16:00:50.861Z,1.32
2018-06-28T16:03:20.270Z,1.90
2018-06-28T16:05:49.391Z,1.17
2018-06-28T16:08:18.170Z,2.10
2018-06-28T16:10:46.537Z,2.35
2018-06-28T16:13:14.677Z,1.50
2018-06-28T16:15:42.894Z,1.87
2018-06-28T16:18:11.028Z,1.67
2018-06-28T16:20:39.293Z,1.37
2018-06-28T16:23:07.650Z,1.47
2018-06-28T16:25:36.286Z,2.92
2018-06-28T16:28:04.603Z,1.27
2018-06-28T16:30:32.844Z,1.85
2018-06-28T16:33:01.005Z,1.42
2018-06-28T16:35:29.186Z,1.85
2018-06-28T16:37:57.374Z,1.82
2018-06-28T16:40:25.632Z,2.75
2018-06-28T16:42:54.022Z,2.35
2018-06-28T16:45:22.239Z,2.35
2018-06-28T16:47:50.390Z,1.10
2018-06-28T16:50:18.750Z,2.02
2018-06-28T16:52:46.956Z,1.87
2018-06-28T16:55:15.121Z,2.15
2018-06-28T16:57:44.215Z,2.75
2018-06-28T17:00:12.424Z,1.52
2018-06-28T17:02:40.569Z,1.60
2018-06-28T17:05:08.753Z,5.05
2018-06-28T17:07:37.819Z,1.10
2018-06-28T17:10:05.984Z,1.57
2018-06-28T17:12:34.349Z,1.40
2018-06-28T17:15:02.569Z,1.40
2018-06-28T17:17:30.849Z,1.30
2018-06-28T17:19:59.053Z,1.30
2018-06-28T17:22:28.059Z,2.98
2018-06-28T17:24:56.372Z,2.22
2018-06-28T17:27:24.674Z,1.52
2018-06-28T17:29:53.011Z,1.45
2018-06-28T17:32:21.397Z,2.35
2018-06-28T17:34:50.191Z,2.08
2018-06-28T17:37:18.533Z,1.92
2018-06-28T17:39:47.309Z,1.17
2018-06-28T17:42:15.642Z,2.08
2018-06-28T17:44:44.525Z,1.85
2018-06-28T17:47:13.556Z,1.17
2018-06-28T17:49:41.824Z,2.45
2018-06-28T17:52:09.970Z,1.17
2018-06-28T17:54:39.297Z,1.90
2018-06-28T17:57:07.545Z,2.10
2018-06-28T17:59:35.968Z,1.07
2018-06-28T18:02:04.179Z,1.70
2018-06-28T18:04:32.833Z,1.35
2018-06-28T18:07:02.072Z,1.72
2018-06-28T18:09:30.971Z,1.62
2018-06-28T18:11:59.333Z,1.62
2018-06-28T18:14:27.746Z,2.35
2018-06-28T18:16:56.035Z,3.08
2018-06-28T18:19:24.157Z,1.30
2018-06-28T18:21:52.447Z,2.55
2018-06-28T18:24:20.718Z,1.47
2018-06-28T18:26:48.931Z,1.50
2018-06-28T18:29:17.088Z,1.42
2018-06-28T18:31:45.448Z,1.70
2018-06-28T18:34:13.717Z,2.55
2018-06-28T18:36:41.933Z,1.52
2018-06-28T18:39:10.583Z,2.40
2018-06-28T18:41:39.409Z,1.30
2018-06-28T18:44:07.685Z,3.67
2018-06-28T18:46:35.829Z,2.77
2018-06-28T18:49:04.083Z,3.50
2018-06-28T18:51:32.354Z,1.50
2018-06-28T18:54:00.784Z,2.98
2018-06-28T18:56:29.722Z,1.85
2018-06-28T18:58:58.151Z,2.12
2018-06-28T19:01:26.372Z,3.20
2018-06-28T19:03:55.096Z,2.13
2018-06-28T19:06:23.566Z,2.10
2018-06-28T19:08:52.422Z,1.47
2018-06-28T19:11:20.650Z,2.67
2018-06-28T19:13:54.203Z,4.20
2018-06-28T19:16:28.256Z,3.53
2018-06-28T19:18:56.427Z,2.17
2018-06-28T19:21:29.993Z,2.80
2018-06-28T19:23:58.227Z,1.73
2018-06-28T19:26:26.397Z,1.30
2018-06-28T19:28:55.245Z,3.03
2018-06-28T19:31:29.183Z,1.43
2018-06-28T19:33:57.380Z,1.20
2018-06-28T19:36:26.467Z,1.63
2018-06-28T19:39:00.514Z,1.60
2018-06-28T19:41:34.899Z,1.80
2018-06-28T19:44:03.380Z,2.83
2018-06-28T19:46:32.631Z,2.33
2018-06-28T19:49:01.509Z,1.10
2018-06-28T19:51:35.169Z,1.53
2018-06-28T19:54:03.953Z,1.13
2018-06-28T19:56:32.112Z,2.53
2018-06-28T19:59:00.936Z,4.73
2018-06-28T20:01:34.654Z,1.93
2018-06-28T20:04:08.100Z,1.77
2018-06-28T20:06:36.475Z,1.00
2018-06-28T20:09:06.904Z,1.60
2018-06-28T20:11:35.098Z,2.17
2018-06-28T20:14:09.578Z,4.77
2018-06-28T20:16:43.101Z,1.87
2018-06-28T20:19:16.713Z,2.30
2018-06-28T20:21:45.106Z,2.07
2018-06-28T20:24:13.482Z,1.40
2018-06-28T20:26:47.132Z,2.30
2018-06-28T20:30:25.188Z,0.87
2018-06-28T20:33:57.441Z,1.13
2018-06-28T20:36:25.663Z,1.33
2018-06-28T20:38:53.819Z,1.17
2018-06-28T20:41:22.029Z,1.33
2018-06-28T20:43:50.379Z,1.57
2018-06-28T20:46:19.279Z,2.03
2018-06-28T20:48:47.474Z,1.40
2018-06-28T20:51:15.844Z,1.30
2018-06-28T20:53:44.827Z,1.30
2018-06-28T20:56:13.080Z,3.63
2018-06-28T20:58:45.766Z,1.20
2018-06-28T21:01:14.767Z,3.23
2018-06-28T21:03:43.138Z,2.50
2018-06-28T21:06:11.289Z,1.07
2018-06-28T21:08:40.038Z,1.63
2018-06-28T21:11:08.558Z,1.60
2018-06-28T21:13:37.339Z,1.27
2018-06-28T21:16:06.122Z,2.13
2018-06-28T21:18:34.309Z,2.10
2018-06-28T21:21:03.281Z,1.60
2018-06-28T21:23:31.448Z,2.13
2018-06-28T21:25:59.751Z,1.40
2018-06-28T21:28:28.024Z,2.93
2018-06-28T21:30:56.298Z,1.83
2018-06-28T21:33:24.455Z,3.80
2018-06-28T21:35:52.647Z,3.53
2018-06-28T21:38:20.784Z,1.90
2018-06-28T21:40:49.694Z,2.00
2018-06-28T21:43:18.032Z,2.23
2018-06-28T21:45:46.777Z,2.00
2018-06-28T21:48:15.011Z,1.60
2018-06-28T21:50:43.733Z,2.90
2018-06-28T21:53:11.927Z,2.67
2018-06-28T21:55:40.795Z,3.10
2018-06-28T21:58:09.061Z,1.97
2018-06-28T22:00:38.622Z,1.47
2018-06-28T22:03:07.917Z,2.07
2018-06-28T22:05:36.162Z,1.97
2018-06-28T22:08:05.080Z,1.37
2018-06-28T22:10:33.993Z,3.30
2018-06-28T22:13:02.898Z,1.67
2018-06-28T22:15:32.034Z,2.63
2018-06-28T22:18:04.931Z,2.87
2018-06-28T22:20:33.985Z,1.37
2018-06-28T22:23:02.146Z,3.13
2018-06-28T22:25:31.265Z,1.40
2018-06-28T22:27:59.454Z,1.43
2018-06-28T22:30:27.611Z,2.40
2018-06-28T22:32:55.834Z,2.87
2018-06-28T22:35:25.473Z,1.63
2018-06-28T22:37:53.761Z,2.27
2018-06-28T22:40:21.954Z,2.87
2018-06-28T22:42:50.616Z,2.80
2018-06-28T22:45:19.405Z,1.30
2018-06-28T22:47:47.802Z,1.50
2018-06-28T22:50:16.066Z,2.40
2018-06-28T22:52:44.252Z,1.57
2018-06-28T22:55:13.148Z,1.50
2018-06-28T22:57:42.441Z,1.40
2018-06-28T23:00:10.763Z,1.87
2018-06-28T23:02:38.985Z,1.60
2018-06-28T23:05:07.125Z,2.40
2018-06-28T23:07:35.341Z,1.67
2018-06-28T23:10:03.482Z,2.13
2018-06-28T23:12:32.300Z,1.80
2018-06-28T23:15:00.580Z,1.57
2018-06-28T23:17:29.310Z,2.23
2018-06-28T23:19:58.264Z,1.63
2018-06-28T23:22:32.593Z,1.77
2018-06-28T23:25:01.020Z,1.83
2018-06-28T23:27:29.953Z,1.40
2018-06-28T23:29:58.105Z,1.70
2018-06-28T23:32:26.346Z,1.67
2018-06-28T23:34:54.604Z,1.93
2018-06-28T23:37:22.796Z,1.93
2018-06-28T23:39:51.013Z,1.37
2018-06-28T23:42:19.186Z,2.83
2018-06-28T23:44:47.466Z,3.20
2018-06-28T23:47:16.255Z,1.60
2018-06-28T23:49:44.480Z,1.77
2018-06-28T23:52:12.605Z,1.90
2018-06-28T23:54:40.726Z,1.80
2018-06-28T23:57:09.379Z,1.77
2018-06-28T23:59:37.620Z,2.03
